sensor_id;sensor_type;location;lat;lon;timestamp;pressure;altitude;pressure_sealevel;temperature;humidity
10518;BME280;5307;42.548;22.968;2022-10-31T00:02:25;94327.31;;;10.79;73.77
10518;BME280;5307;42.548;22.968;2022-10-31T00:04:51;94319.34;;;10.59;74.19
10518;BME280;5307;42.548;22.968;2022-10-31T00:07:18;94326.09;;;10.54;74.25
10518;BME280;5307;42.548;22.968;2022-10-31T00:09:45;94327.63;;;10.43;74.15
10518;BME280;5307;42.548;22.968;2022-10-31T00:12:13;94315.25;;;10.38;74.29
10518;BME280;5307;42.548;22.968;2022-10-31T00:14:40;94327.41;;;10.50;74.46
10518;BME280;5307;42.548;22.968;2022-10-31T00:17:06;94326.00;;;10.45;73.92
10518;BME280;5307;42.548;22.968;2022-10-31T00:19:33;94317.00;;;10.32;75.01
10518;BME280;5307;42.548;22.968;2022-10-31T00:22:00;94321.16;;;10.07;74.68
10518;BME280;5307;42.548;22.968;2022-10-31T00:24:27;94318.72;;;9.97;75.69
10518;BME280;5307;42.548;22.968;2022-10-31T00:26:54;94323.34;;;10.12;76.01
10518;BME280;5307;42.548;22.968;2022-10-31T00:29:22;94325.84;;;10.07;75.80
10518;BME280;5307;42.548;22.968;2022-10-31T00:31:48;94328.78;;;10.00;75.76
10518;BME280;5307;42.548;22.968;2022-10-31T00:34:15;94327.94;;;10.03;76.26
10518;BME280;5307;42.548;22.968;2022-10-31T00:36:42;94337.38;;;9.98;75.93
10518;BME280;5307;42.548;22.968;2022-10-31T00:39:09;94323.41;;;9.96;75.61
10518;BME280;5307;42.548;22.968;2022-10-31T00:41:36;94334.31;;;9.96;75.55
10518;BME280;5307;42.548;22.968;2022-10-31T00:44:03;94327.81;;;10.06;75.48
10518;BME280;5307;42.548;22.968;2022-10-31T00:46:31;94318.94;;;9.90;76.21
10518;BME280;5307;42.548;22.968;2022-10-31T00:48:57;94322.31;;;9.94;76.05
10518;BME280;5307;42.548;22.968;2022-10-31T00:51:24;94321.13;;;9.66;76.07
10518;BME280;5307;42.548;22.968;2022-10-31T00:53:51;94328.06;;;9.83;76.30
10518;BME280;5307;42.548;22.968;2022-10-31T00:56:18;94329.13;;;9.73;76.39
10518;BME280;5307;42.548;22.968;2022-10-31T00:58:45;94326.41;;;9.57;76.53
10518;BME280;5307;42.548;22.968;2022-10-31T01:01:11;94333.75;;;9.60;76.67
10518;BME280;5307;42.548;22.968;2022-10-31T01:03:40;94335.91;;;9.36;77.29
10518;BME280;5307;42.548;22.968;2022-10-31T01:06:08;94320.06;;;9.47;77.03
10518;BME280;5307;42.548;22.968;2022-10-31T01:08:36;94328.00;;;9.70;76.88
10518;BME280;5307;42.548;22.968;2022-10-31T01:11:06;94327.97;;;9.25;77.67
10518;BME280;5307;42.548;22.968;2022-10-31T01:13:34;94336.25;;;9.21;78.26
10518;BME280;5307;42.548;22.968;2022-10-31T01:16:02;94335.63;;;9.63;77.37
10518;BME280;5307;42.548;22.968;2022-10-31T01:18:30;94341.25;;;9.56;76.59
10518;BME280;5307;42.548;22.968;2022-10-31T01:20:59;94340.66;;;9.48;77.07
10518;BME280;5307;42.548;22.968;2022-10-31T01:23:27;94338.03;;;9.28;77.07
10518;BME280;5307;42.548;22.968;2022-10-31T01:26:10;94337.34;;;9.40;76.73
10518;BME280;5307;42.548;22.968;2022-10-31T01:28:39;94336.06;;;9.29;78.52
10518;BME280;5307;42.548;22.968;2022-10-31T01:31:08;94341.44;;;9.48;76.96
10518;BME280;5307;42.548;22.968;2022-10-31T01:33:36;94338.88;;;9.41;77.50
10518;BME280;5307;42.548;22.968;2022-10-31T01:36:16;94338.63;;;9.19;78.02
10518;BME280;5307;42.548;22.968;2022-10-31T01:38:44;94331.66;;;9.18;78.78
10518;BME280;5307;42.548;22.968;2022-10-31T01:41:12;94315.75;;;9.17;78.46
10518;BME280;5307;42.548;22.968;2022-10-31T01:43:47;94325.09;;;9.00;79.60
10518;BME280;5307;42.548;22.968;2022-10-31T01:46:15;94330.38;;;8.90;79.86
10518;BME280;5307;42.548;22.968;2022-10-31T01:48:44;94329.94;;;9.25;79.18
10518;BME280;5307;42.548;22.968;2022-10-31T01:51:12;94329.66;;;9.51;78.24
10518;BME280;5307;42.548;22.968;2022-10-31T01:53:42;94331.03;;;9.60;76.40
10518;BME280;5307;42.548;22.968;2022-10-31T01:56:10;94331.03;;;9.60;77.97
10518;BME280;5307;42.548;22.968;2022-10-31T01:58:39;94329.78;;;9.77;77.03
10518;BME280;5307;42.548;22.968;2022-10-31T02:01:06;94330.72;;;9.70;77.66
10518;BME280;5307;42.548;22.968;2022-10-31T02:03:33;94323.13;;;9.78;77.46
10518;BME280;5307;42.548;22.968;2022-10-31T02:06:03;94315.00;;;9.62;77.89
10518;BME280;5307;42.548;22.968;2022-10-31T02:08:35;94330.09;;;9.50;77.65
10518;BME280;5307;42.548;22.968;2022-10-31T02:11:03;94320.81;;;9.47;79.46
10518;BME280;5307;42.548;22.968;2022-10-31T02:13:58;94311.25;;;9.56;78.98
10518;BME280;5307;42.548;22.968;2022-10-31T02:20:13;94301.19;;;9.52;77.76
10518;BME280;5307;42.548;22.968;2022-10-31T02:22:57;94320.59;;;9.71;78.03
10518;BME280;5307;42.548;22.968;2022-10-31T02:25:46;94328.09;;;9.67;78.69
10518;BME280;5307;42.548;22.968;2022-10-31T02:28:33;94322.75;;;9.63;78.90
10518;BME280;5307;42.548;22.968;2022-10-31T02:31:17;94328.72;;;9.58;80.22
10518;BME280;5307;42.548;22.968;2022-10-31T02:33:51;94331.41;;;9.74;80.10
10518;BME280;5307;42.548;22.968;2022-10-31T02:36:23;94315.63;;;9.82;79.29
10518;BME280;5307;42.548;22.968;2022-10-31T02:38:59;94337.88;;;9.80;79.14
10518;BME280;5307;42.548;22.968;2022-10-31T02:41:34;94340.25;;;9.78;80.16
10518;BME280;5307;42.548;22.968;2022-10-31T02:44:06;94336.94;;;9.87;79.70
10518;BME280;5307;42.548;22.968;2022-10-31T02:46:40;94350.22;;;9.85;79.87
10518;BME280;5307;42.548;22.968;2022-10-31T02:49:18;94344.59;;;9.92;80.38
10518;BME280;5307;42.548;22.968;2022-10-31T02:51:59;94341.75;;;9.96;80.44
10518;BME280;5307;42.548;22.968;2022-10-31T02:54:27;94348.22;;;10.02;81.08
10518;BME280;5307;42.548;22.968;2022-10-31T02:57:04;94335.44;;;9.53;78.61
10518;BME280;5307;42.548;22.968;2022-10-31T02:59:33;94345.09;;;9.58;78.23
10518;BME280;5307;42.548;22.968;2022-10-31T03:02:11;94349.94;;;9.50;78.56
10518;BME280;5307;42.548;22.968;2022-10-31T03:05:00;94350.44;;;9.62;76.98
10518;BME280;5307;42.548;22.968;2022-10-31T03:07:37;94351.28;;;9.75;77.42
10518;BME280;5307;42.548;22.968;2022-10-31T03:10:14;94345.13;;;9.71;76.49
10518;BME280;5307;42.548;22.968;2022-10-31T03:12:49;94337.97;;;9.77;76.31
10518;BME280;5307;42.548;22.968;2022-10-31T03:15:23;94356.34;;;9.60;77.54
10518;BME280;5307;42.548;22.968;2022-10-31T03:17:58;94346.28;;;9.57;78.18
10518;BME280;5307;42.548;22.968;2022-10-31T03:20:30;94343.22;;;9.84;77.86
10518;BME280;5307;42.548;22.968;2022-10-31T03:23:01;94346.31;;;9.70;78.93
10518;BME280;5307;42.548;22.968;2022-10-31T03:25:30;94347.03;;;9.74;80.04
10518;BME280;5307;42.548;22.968;2022-10-31T03:27:59;94325.56;;;9.60;80.93
10518;BME280;5307;42.548;22.968;2022-10-31T03:30:29;94349.75;;;9.74;80.51
10518;BME280;5307;42.548;22.968;2022-10-31T03:33:04;94352.22;;;9.68;81.54
10518;BME280;5307;42.548;22.968;2022-10-31T03:35:33;94348.22;;;9.73;79.63
10518;BME280;5307;42.548;22.968;2022-10-31T03:38:02;94356.47;;;9.69;79.60
10518;BME280;5307;42.548;22.968;2022-10-31T03:40:30;94357.88;;;9.61;78.74
10518;BME280;5307;42.548;22.968;2022-10-31T03:43:01;94363.47;;;9.54;79.82
10518;BME280;5307;42.548;22.968;2022-10-31T03:45:30;94366.47;;;9.60;80.38
10518;BME280;5307;42.548;22.968;2022-10-31T03:48:00;94374.16;;;9.48;81.19
10518;BME280;5307;42.548;22.968;2022-10-31T03:50:33;94376.78;;;9.52;81.02
10518;BME280;5307;42.548;22.968;2022-10-31T03:53:04;94375.50;;;9.40;81.06
10518;BME280;5307;42.548;22.968;2022-10-31T03:55:40;94382.22;;;9.52;81.24
10518;BME280;5307;42.548;22.968;2022-10-31T03:58:10;94372.44;;;9.55;81.32
10518;BME280;5307;42.548;22.968;2022-10-31T04:00:40;94379.91;;;9.67;80.21
10518;BME280;5307;42.548;22.968;2022-10-31T04:03:14;94376.44;;;9.95;79.64
10518;BME280;5307;42.548;22.968;2022-10-31T04:05:44;94384.78;;;9.75;78.92
10518;BME280;5307;42.548;22.968;2022-10-31T04:08:15;94380.75;;;9.80;79.80
10518;BME280;5307;42.548;22.968;2022-10-31T04:10:44;94398.94;;;9.54;78.99
10518;BME280;5307;42.548;22.968;2022-10-31T04:13:17;94373.88;;;9.75;79.15
10518;BME280;5307;42.548;22.968;2022-10-31T04:15:46;94387.06;;;9.77;78.98
10518;BME280;5307;42.548;22.968;2022-10-31T04:18:16;94395.91;;;9.81;79.19
10518;BME280;5307;42.548;22.968;2022-10-31T04:20:44;94394.72;;;9.82;79.70
10518;BME280;5307;42.548;22.968;2022-10-31T04:23:17;94401.63;;;9.87;77.72
10518;BME280;5307;42.548;22.968;2022-10-31T04:25:44;94399.69;;;9.87;76.92
10518;BME280;5307;42.548;22.968;2022-10-31T04:28:11;94395.56;;;9.95;78.47
10518;BME280;5307;42.548;22.968;2022-10-31T04:30:38;94387.06;;;9.77;77.74
10518;BME280;5307;42.548;22.968;2022-10-31T04:33:05;94395.06;;;9.84;78.51
10518;BME280;5307;42.548;22.968;2022-10-31T04:35:33;94396.13;;;9.74;78.91
10518;BME280;5307;42.548;22.968;2022-10-31T04:38:00;94396.28;;;9.50;80.67
10518;BME280;5307;42.548;22.968;2022-10-31T04:40:27;94397.31;;;9.73;79.74
10518;BME280;5307;42.548;22.968;2022-10-31T04:42:53;94398.63;;;9.97;78.52
10518;BME280;5307;42.548;22.968;2022-10-31T04:45:20;94393.50;;;9.99;78.38
10518;BME280;5307;42.548;22.968;2022-10-31T04:47:47;94399.81;;;9.96;79.06
10518;BME280;5307;42.548;22.968;2022-10-31T04:50:14;94400.69;;;9.93;79.57
10518;BME280;5307;42.548;22.968;2022-10-31T04:52:45;94403.97;;;10.17;79.25
10518;BME280;5307;42.548;22.968;2022-10-31T04:55:12;94410.88;;;10.22;79.10
10518;BME280;5307;42.548;22.968;2022-10-31T04:57:43;94404.97;;;10.23;78.75
10518;BME280;5307;42.548;22.968;2022-10-31T05:00:12;94408.66;;;10.17;78.38
10518;BME280;5307;42.548;22.968;2022-10-31T05:02:43;94402.50;;;10.12;79.03
10518;BME280;5307;42.548;22.968;2022-10-31T05:05:10;94401.66;;;10.16;79.37
10518;BME280;5307;42.548;22.968;2022-10-31T05:07:39;94411.03;;;10.15;79.06
10518;BME280;5307;42.548;22.968;2022-10-31T05:10:09;94410.19;;;10.18;78.17
10518;BME280;5307;42.548;22.968;2022-10-31T05:12:36;94416.16;;;10.12;77.57
10518;BME280;5307;42.548;22.968;2022-10-31T05:15:04;94405.97;;;10.00;78.32
10518;BME280;5307;42.548;22.968;2022-10-31T05:17:31;94406.72;;;10.01;77.95
10518;BME280;5307;42.548;22.968;2022-10-31T05:19:58;94408.09;;;9.93;78.38
10518;BME280;5307;42.548;22.968;2022-10-31T05:22:25;94421.81;;;10.05;78.00
10518;BME280;5307;42.548;22.968;2022-10-31T05:24:52;94425.09;;;9.51;80.48
10518;BME280;5307;42.548;22.968;2022-10-31T05:27:20;94419.81;;;9.44;81.37
10518;BME280;5307;42.548;22.968;2022-10-31T05:29:47;94431.41;;;9.48;81.30
10518;BME280;5307;42.548;22.968;2022-10-31T05:32:14;94417.00;;;9.64;81.18
10518;BME280;5307;42.548;22.968;2022-10-31T05:34:41;94426.19;;;9.54;81.29
10518;BME280;5307;42.548;22.968;2022-10-31T05:37:15;94431.22;;;9.23;82.70
10518;BME280;5307;42.548;22.968;2022-10-31T05:39:41;94436.09;;;9.64;81.40
10518;BME280;5307;42.548;22.968;2022-10-31T05:42:08;94427.66;;;9.75;81.00
10518;BME280;5307;42.548;22.968;2022-10-31T05:44:36;94440.94;;;9.57;81.66
10518;BME280;5307;42.548;22.968;2022-10-31T05:47:03;94431.66;;;9.87;81.01
10518;BME280;5307;42.548;22.968;2022-10-31T05:49:30;94438.19;;;9.89;79.92
10518;BME280;5307;42.548;22.968;2022-10-31T05:51:57;94438.88;;;9.93;80.02
10518;BME280;5307;42.548;22.968;2022-10-31T05:54:23;94443.66;;;9.89;79.69
10518;BME280;5307;42.548;22.968;2022-10-31T05:56:50;94446.69;;;10.07;79.94
10518;BME280;5307;42.548;22.968;2022-10-31T05:59:17;94449.44;;;10.07;80.06
10518;BME280;5307;42.548;22.968;2022-10-31T06:01:45;94441.06;;;10.31;79.92
10518;BME280;5307;42.548;22.968;2022-10-31T06:04:12;94447.06;;;10.38;79.43
10518;BME280;5307;42.548;22.968;2022-10-31T06:06:39;94451.06;;;10.50;79.04
10518;BME280;5307;42.548;22.968;2022-10-31T06:09:05;94453.03;;;10.50;79.85
10518;BME280;5307;42.548;22.968;2022-10-31T06:11:32;94451.88;;;10.63;79.76
10518;BME280;5307;42.548;22.968;2022-10-31T06:13:59;94450.00;;;10.60;80.08
10518;BME280;5307;42.548;22.968;2022-10-31T06:16:26;94441.69;;;10.64;79.55
10518;BME280;5307;42.548;22.968;2022-10-31T06:18:54;94450.94;;;10.95;78.16
10518;BME280;5307;42.548;22.968;2022-10-31T06:21:21;94453.94;;;11.01;76.74
10518;BME280;5307;42.548;22.968;2022-10-31T06:23:48;94456.78;;;11.23;75.33
10518;BME280;5307;42.548;22.968;2022-10-31T06:26:14;94450.44;;;11.13;77.05
10518;BME280;5307;42.548;22.968;2022-10-31T06:28:41;94456.25;;;11.41;75.57
10518;BME280;5307;42.548;22.968;2022-10-31T06:31:08;94456.91;;;11.57;74.23
10518;BME280;5307;42.548;22.968;2022-10-31T06:33:35;94448.69;;;11.70;73.20
10518;BME280;5307;42.548;22.968;2022-10-31T06:36:04;94456.47;;;11.84;73.08
10518;BME280;5307;42.548;22.968;2022-10-31T06:38:31;94449.53;;;11.93;73.13
10518;BME280;5307;42.548;22.968;2022-10-31T06:41:01;94457.28;;;12.07;73.40
10518;BME280;5307;42.548;22.968;2022-10-31T06:43:28;94458.97;;;11.92;75.21
10518;BME280;5307;42.548;22.968;2022-10-31T06:45:55;94454.78;;;12.00;75.50
10518;BME280;5307;42.548;22.968;2022-10-31T06:48:21;94461.84;;;12.57;72.46
10518;BME280;5307;42.548;22.968;2022-10-31T06:50:48;94455.66;;;13.10;68.50
10518;BME280;5307;42.548;22.968;2022-10-31T06:53:16;94454.38;;;13.54;66.14
10518;BME280;5307;42.548;22.968;2022-10-31T06:55:43;94455.09;;;13.95;65.13
10518;BME280;5307;42.548;22.968;2022-10-31T06:58:10;94451.03;;;14.27;64.14
10518;BME280;5307;42.548;22.968;2022-10-31T07:00:37;94458.88;;;14.65;62.23
10518;BME280;5307;42.548;22.968;2022-10-31T07:03:06;94452.91;;;15.45;60.11
10518;BME280;5307;42.548;22.968;2022-10-31T07:05:33;94452.00;;;15.49;60.03
10518;BME280;5307;42.548;22.968;2022-10-31T07:08:04;94453.66;;;15.46;59.37
10518;BME280;5307;42.548;22.968;2022-10-31T07:10:34;94460.78;;;16.28;58.02
10518;BME280;5307;42.548;22.968;2022-10-31T07:13:02;94444.97;;;16.14;57.97
10518;BME280;5307;42.548;22.968;2022-10-31T07:15:33;94453.31;;;16.91;55.81
10518;BME280;5307;42.548;22.968;2022-10-31T07:18:01;94445.25;;;17.32;55.46
10518;BME280;5307;42.548;22.968;2022-10-31T07:20:28;94456.16;;;17.41;54.69
10518;BME280;5307;42.548;22.968;2022-10-31T07:22:55;94450.16;;;17.57;54.02
10518;BME280;5307;42.548;22.968;2022-10-31T07:25:22;94463.41;;;17.09;55.64
10518;BME280;5307;42.548;22.968;2022-10-31T07:27:51;94449.50;;;17.47;54.50
10518;BME280;5307;42.548;22.968;2022-10-31T07:30:17;94454.16;;;17.56;54.67
10518;BME280;5307;42.548;22.968;2022-10-31T07:32:46;94444.16;;;17.73;54.53
10518;BME280;5307;42.548;22.968;2022-10-31T07:35:15;94451.25;;;17.95;53.83
10518;BME280;5307;42.548;22.968;2022-10-31T07:37:42;94450.06;;;18.57;52.21
10518;BME280;5307;42.548;22.968;2022-10-31T07:40:10;94444.97;;;18.90;51.32
10518;BME280;5307;42.548;22.968;2022-10-31T07:42:38;94447.00;;;18.95;51.51
10518;BME280;5307;42.548;22.968;2022-10-31T07:45:08;94443.78;;;18.56;51.41
10518;BME280;5307;42.548;22.968;2022-10-31T07:47:39;94438.34;;;19.60;49.66
10518;BME280;5307;42.548;22.968;2022-10-31T07:50:06;94436.59;;;20.00;48.64
10518;BME280;5307;42.548;22.968;2022-10-31T07:52:33;94435.69;;;19.77;49.97
10518;BME280;5307;42.548;22.968;2022-10-31T07:55:00;94433.50;;;19.86;49.01
10518;BME280;5307;42.548;22.968;2022-10-31T07:57:27;94429.66;;;19.21;51.09
10518;BME280;5307;42.548;22.968;2022-10-31T07:59:54;94430.00;;;19.97;49.02
10518;BME280;5307;42.548;22.968;2022-10-31T08:02:22;94433.13;;;20.10;48.74
10518;BME280;5307;42.548;22.968;2022-10-31T08:04:49;94427.84;;;20.12;47.51
10518;BME280;5307;42.548;22.968;2022-10-31T08:07:16;94434.75;;;20.28;47.85
10518;BME280;5307;42.548;22.968;2022-10-31T08:09:43;94431.41;;;20.19;47.24
10518;BME280;5307;42.548;22.968;2022-10-31T08:12:10;94423.69;;;20.34;45.29
10518;BME280;5307;42.548;22.968;2022-10-31T08:14:37;94421.06;;;20.62;46.18
10518;BME280;5307;42.548;22.968;2022-10-31T08:17:04;94418.31;;;20.73;44.76
10518;BME280;5307;42.548;22.968;2022-10-31T08:19:32;94423.19;;;21.00;45.30
10518;BME280;5307;42.548;22.968;2022-10-31T08:21:59;94421.59;;;20.71;45.49
10518;BME280;5307;42.548;22.968;2022-10-31T08:24:26;94427.25;;;21.16;43.77
10518;BME280;5307;42.548;22.968;2022-10-31T08:26:53;94425.22;;;21.00;43.72
10518;BME280;5307;42.548;22.968;2022-10-31T08:29:19;94430.09;;;21.39;43.97
10518;BME280;5307;42.548;22.968;2022-10-31T08:31:46;94421.00;;;21.77;42.97
10518;BME280;5307;42.548;22.968;2022-10-31T08:34:13;94417.44;;;21.88;41.89
10518;BME280;5307;42.548;22.968;2022-10-31T08:36:41;94424.53;;;22.06;42.14
10518;BME280;5307;42.548;22.968;2022-10-31T08:39:10;94425.00;;;22.10;41.63
10518;BME280;5307;42.548;22.968;2022-10-31T08:41:37;94420.25;;;22.10;40.97
10518;BME280;5307;42.548;22.968;2022-10-31T08:44:04;94438.41;;;22.28;40.94
10518;BME280;5307;42.548;22.968;2022-10-31T08:46:31;94430.41;;;22.66;40.49
10518;BME280;5307;42.548;22.968;2022-10-31T08:48:58;94436.66;;;21.47;41.80
10518;BME280;5307;42.548;22.968;2022-10-31T08:51:25;94430.09;;;21.72;42.35
10518;BME280;5307;42.548;22.968;2022-10-31T08:53:53;94443.25;;;21.72;41.96
10518;BME280;5307;42.548;22.968;2022-10-31T08:56:20;94433.16;;;21.69;41.53
10518;BME280;5307;42.548;22.968;2022-10-31T08:58:47;94433.88;;;21.36;42.75
10518;BME280;5307;42.548;22.968;2022-10-31T09:01:14;94441.34;;;20.96;43.49
10518;BME280;5307;42.548;22.968;2022-10-31T09:03:41;94437.13;;;21.17;43.05
10518;BME280;5307;42.548;22.968;2022-10-31T09:06:08;94428.59;;;22.10;42.21
10518;BME280;5307;42.548;22.968;2022-10-31T09:08:35;94435.16;;;21.46;42.38
10518;BME280;5307;42.548;22.968;2022-10-31T09:11:04;94429.59;;;22.13;41.58
10518;BME280;5307;42.548;22.968;2022-10-31T09:13:32;94424.03;;;21.96;42.08
10518;BME280;5307;42.548;22.968;2022-10-31T09:15:59;94424.25;;;21.92;41.57
10518;BME280;5307;42.548;22.968;2022-10-31T09:18:25;94426.06;;;21.73;41.82
10518;BME280;5307;42.548;22.968;2022-10-31T09:20:54;94425.72;;;22.38;40.90
10518;BME280;5307;42.548;22.968;2022-10-31T09:23:22;94427.56;;;21.97;41.64
10518;BME280;5307;42.548;22.968;2022-10-31T09:25:51;94433.50;;;22.57;40.04
10518;BME280;5307;42.548;22.968;2022-10-31T09:28:21;94424.72;;;21.18;42.26
10518;BME280;5307;42.548;22.968;2022-10-31T09:30:49;94434.66;;;21.70;41.78
10518;BME280;5307;42.548;22.968;2022-10-31T09:33:17;94430.56;;;22.21;40.70
10518;BME280;5307;42.548;22.968;2022-10-31T09:35:44;94422.38;;;23.15;39.76
10518;BME280;5307;42.548;22.968;2022-10-31T09:38:12;94418.28;;;22.69;39.77
10518;BME280;5307;42.548;22.968;2022-10-31T09:40:43;94418.16;;;22.22;41.33
10518;BME280;5307;42.548;22.968;2022-10-31T09:43:16;94415.94;;;21.64;41.63
10518;BME280;5307;42.548;22.968;2022-10-31T09:45:55;94419.72;;;22.01;41.80
10518;BME280;5307;42.548;22.968;2022-10-31T09:48:41;94410.38;;;21.87;41.79
10518;BME280;5307;42.548;22.968;2022-10-31T09:51:13;94408.59;;;21.67;41.78
10518;BME280;5307;42.548;22.968;2022-10-31T09:53:44;94405.31;;;21.85;42.01
10518;BME280;5307;42.548;22.968;2022-10-31T09:56:16;94398.25;;;23.23;40.57
10518;BME280;5307;42.548;22.968;2022-10-31T09:58:46;94402.75;;;22.90;41.01
10518;BME280;5307;42.548;22.968;2022-10-31T10:01:28;94397.91;;;22.38;41.39
10518;BME280;5307;42.548;22.968;2022-10-31T10:04:00;94401.56;;;22.63;40.34
10518;BME280;5307;42.548;22.968;2022-10-31T10:06:34;94386.78;;;22.91;40.08
10518;BME280;5307;42.548;22.968;2022-10-31T10:09:02;94403.75;;;22.29;41.82
10518;BME280;5307;42.548;22.968;2022-10-31T10:11:40;94392.44;;;23.21;40.94
10518;BME280;5307;42.548;22.968;2022-10-31T10:14:32;94386.25;;;22.40;40.43
10518;BME280;5307;42.548;22.968;2022-10-31T10:17:20;94382.13;;;23.10;39.89
10518;BME280;5307;42.548;22.968;2022-10-31T10:20:05;94382.78;;;22.75;40.43
10518;BME280;5307;42.548;22.968;2022-10-31T10:22:43;94381.38;;;22.57;42.81
10518;BME280;5307;42.548;22.968;2022-10-31T10:25:15;94380.94;;;22.42;41.00
10518;BME280;5307;42.548;22.968;2022-10-31T10:28:03;94376.19;;;22.78;41.31
10518;BME280;5307;42.548;22.968;2022-10-31T10:30:36;94372.44;;;22.01;41.01
10518;BME280;5307;42.548;22.968;2022-10-31T10:33:11;94382.44;;;22.43;40.38
10518;BME280;5307;42.548;22.968;2022-10-31T10:35:41;94373.94;;;22.07;41.13
10518;BME280;5307;42.548;22.968;2022-10-31T10:38:14;94379.97;;;22.22;40.79
10518;BME280;5307;42.548;22.968;2022-10-31T10:40:42;94373.13;;;22.87;40.22
10518;BME280;5307;42.548;22.968;2022-10-31T10:43:24;94370.63;;;22.20;41.11
10518;BME280;5307;42.548;22.968;2022-10-31T10:46:16;94374.50;;;22.64;40.42
10518;BME280;5307;42.548;22.968;2022-10-31T10:49:11;94366.19;;;22.58;40.62
10518;BME280;5307;42.548;22.968;2022-10-31T10:51:43;94365.97;;;22.45;40.77
10518;BME280;5307;42.548;22.968;2022-10-31T10:57:37;94358.38;;;22.45;41.18
10518;BME280;5307;42.548;22.968;2022-10-31T11:00:16;94362.50;;;23.57;38.92
10518;BME280;5307;42.548;22.968;2022-10-31T11:02:43;94358.13;;;23.01;39.59
10518;BME280;5307;42.548;22.968;2022-10-31T11:05:17;94355.53;;;23.09;40.51
10518;BME280;5307;42.548;22.968;2022-10-31T11:07:46;94355.34;;;23.37;40.86
10518;BME280;5307;42.548;22.968;2022-10-31T11:10:14;94357.63;;;22.97;39.19
10518;BME280;5307;42.548;22.968;2022-10-31T11:12:42;94343.38;;;22.60;39.20
10518;BME280;5307;42.548;22.968;2022-10-31T11:15:18;94347.69;;;22.61;39.25
10518;BME280;5307;42.548;22.968;2022-10-31T11:17:48;94349.66;;;22.66;39.03
10518;BME280;5307;42.548;22.968;2022-10-31T11:20:27;94333.50;;;23.05;39.75
10518;BME280;5307;42.548;22.968;2022-10-31T11:23:17;94339.31;;;22.66;38.87
10518;BME280;5307;42.548;22.968;2022-10-31T11:25:53;94332.47;;;22.62;38.99
10518;BME280;5307;42.548;22.968;2022-10-31T11:28:21;94325.41;;;22.66;39.74
10518;BME280;5307;42.548;22.968;2022-10-31T11:30:52;94327.94;;;22.59;39.96
10518;BME280;5307;42.548;22.968;2022-10-31T11:33:24;94316.78;;;22.12;40.00
10518;BME280;5307;42.548;22.968;2022-10-31T11:35:54;94317.03;;;22.03;40.17
10518;BME280;5307;42.548;22.968;2022-10-31T11:38:29;94318.13;;;21.77;40.58
10518;BME280;5307;42.548;22.968;2022-10-31T11:41:03;94324.41;;;21.89;40.20
10518;BME280;5307;42.548;22.968;2022-10-31T11:43:33;94313.53;;;21.97;40.16
10518;BME280;5307;42.548;22.968;2022-10-31T11:46:08;94307.19;;;22.07;40.11
10518;BME280;5307;42.548;22.968;2022-10-31T11:48:36;94309.91;;;22.18;40.21
10518;BME280;5307;42.548;22.968;2022-10-31T11:51:04;94307.06;;;22.35;39.90
10518;BME280;5307;42.548;22.968;2022-10-31T11:53:34;94302.66;;;22.51;39.77
10518;BME280;5307;42.548;22.968;2022-10-31T11:56:04;94310.16;;;22.20;39.91
10518;BME280;5307;42.548;22.968;2022-10-31T11:58:32;94298.19;;;22.37;40.09
10518;BME280;5307;42.548;22.968;2022-10-31T12:00:58;94294.38;;;22.45;40.18
10518;BME280;5307;42.548;22.968;2022-10-31T12:03:37;94291.06;;;22.47;41.33
10518;BME280;5307;42.548;22.968;2022-10-31T12:06:09;94285.47;;;22.52;39.96
10518;BME280;5307;42.548;22.968;2022-10-31T12:08:40;94287.75;;;22.54;39.50
10518;BME280;5307;42.548;22.968;2022-10-31T12:11:18;94281.41;;;22.54;38.27
10518;BME280;5307;42.548;22.968;2022-10-31T12:14:00;94285.47;;;22.52;38.42
10518;BME280;5307;42.548;22.968;2022-10-31T12:16:33;94284.44;;;22.56;39.02
10518;BME280;5307;42.548;22.968;2022-10-31T12:19:05;94279.66;;;22.50;40.97
10518;BME280;5307;42.548;22.968;2022-10-31T12:21:48;94278.34;;;22.57;39.11
10518;BME280;5307;42.548;22.968;2022-10-31T12:24:32;94287.19;;;22.61;38.15
10518;BME280;5307;42.548;22.968;2022-10-31T12:27:12;94290.72;;;22.62;38.51
10518;BME280;5307;42.548;22.968;2022-10-31T12:30:15;94288.97;;;22.59;39.47
10518;BME280;5307;42.548;22.968;2022-10-31T12:35:51;94292.06;;;22.49;38.62
10518;BME280;5307;42.548;22.968;2022-10-31T12:38:44;94294.31;;;22.57;38.75
10518;BME280;5307;42.548;22.968;2022-10-31T12:41:38;94299.41;;;22.47;38.46
10518;BME280;5307;42.548;22.968;2022-10-31T12:44:11;94309.31;;;22.42;39.03
10518;BME280;5307;42.548;22.968;2022-10-31T12:46:51;94288.09;;;22.39;38.68
10518;BME280;5307;42.548;22.968;2022-10-31T12:49:47;94308.31;;;22.40;38.51
10518;BME280;5307;42.548;22.968;2022-10-31T12:52:34;94293.78;;;22.58;38.54
10518;BME280;5307;42.548;22.968;2022-10-31T12:55:13;94301.63;;;22.60;38.86
10518;BME280;5307;42.548;22.968;2022-10-31T12:57:45;94298.19;;;22.42;38.72
10518;BME280;5307;42.548;22.968;2022-10-31T13:00:14;94308.78;;;22.44;38.27
10518;BME280;5307;42.548;22.968;2022-10-31T13:02:46;94309.50;;;22.50;39.89
10518;BME280;5307;42.548;22.968;2022-10-31T13:05:19;94295.84;;;22.52;39.19
10518;BME280;5307;42.548;22.968;2022-10-31T13:07:53;94307.81;;;22.41;39.43
10518;BME280;5307;42.548;22.968;2022-10-31T13:10:26;94305.53;;;22.40;39.39
10518;BME280;5307;42.548;22.968;2022-10-31T13:13:00;94319.19;;;22.38;38.37
10518;BME280;5307;42.548;22.968;2022-10-31T13:15:34;94318.50;;;22.26;39.09
10518;BME280;5307;42.548;22.968;2022-10-31T13:18:06;94313.19;;;22.28;38.74
10518;BME280;5307;42.548;22.968;2022-10-31T13:20:40;94304.88;;;22.17;38.64
10518;BME280;5307;42.548;22.968;2022-10-31T13:23:14;94303.63;;;22.12;39.89
10518;BME280;5307;42.548;22.968;2022-10-31T13:25:46;94312.50;;;22.05;39.35
10518;BME280;5307;42.548;22.968;2022-10-31T13:28:25;94308.44;;;22.06;39.82
10518;BME280;5307;42.548;22.968;2022-10-31T13:30:55;94315.78;;;21.92;39.48
10518;BME280;5307;42.548;22.968;2022-10-31T13:33:25;94306.19;;;21.99;39.89
10518;BME280;5307;42.548;22.968;2022-10-31T13:36:08;94311.53;;;21.86;39.96